Time;durP1;ratioP1;P1;durP2;ratioP2;P2;SDS_P1;SDS_P2;PMS_P1;PMS_P2;Temp;Humidity;BMP_temperature;BMP_pressure;BME280_temperature;BME280_humidity;BME280_pressure;Samples;Min_cycle;Max_cycle;Signal;HPM_P1;HPM_P2
2022/03/15 00:00:46;;;;;;;;;;;18.40;30.30;;;;;;8335603;28;20508;-50
2022/03/15 00:04:46;;;;;;;;;;;18.40;30.30;;;;;;8335443;28;19917;-50
2022/03/15 00:08:48;;;;;;;;;;;18.40;30.30;;;;;;8335015;28;20293;-48
2022/03/15 00:12:49;;;;;;;;;;;18.40;30.30;;;;;;8335150;28;20016;-50
2022/03/15 00:16:49;;;;;;;;;;;18.40;30.30;;;;;;8334457;28;19920;-47
2022/03/15 00:20:50;;;;;;;;;;;18.40;30.30;;;;;;8334594;28;19921;-48
2022/03/15 00:24:51;;;;;;;;;;;18.40;30.30;;;;;;8334822;28;19940;-48
2022/03/15 00:28:52;;;;;;;;;;;18.30;30.30;;;;;;8334066;28;19939;-49
2022/03/15 00:32:52;;;;;;;;;;;18.40;30.30;;;;;;8334717;28;19917;-47
2022/03/15 00:36:53;;;;;;;;;;;18.30;30.30;;;;;;8334219;28;19920;-47
2022/03/15 00:40:53;;;;;;;;;;;18.40;30.40;;;;;;8333605;28;20370;-46
2022/03/15 00:44:54;;;;;;;;;;;18.30;30.40;;;;;;8334591;28;19921;-49
2022/03/15 00:48:54;;;;;;;;;;;18.30;30.30;;;;;;8334050;28;19917;-47
2022/03/15 00:52:55;;;;;;;;;;;18.30;30.40;;;;;;8333390;28;20301;-47
2022/03/15 00:56:57;;;;;;;;;;;18.30;30.40;;;;;;8333681;28;19928;-50
2022/03/15 01:00:57;;;;;;;;;;;18.30;30.30;;;;;;8333345;28;19944;-50
2022/03/15 01:04:57;;;;;;;;;;;18.30;30.60;;;;;;8333355;28;19917;-46
2022/03/15 01:08:58;;;;;;;;;;;18.30;30.40;;;;;;8333345;28;19921;-45
2022/03/15 01:12:58;;;;;;;;;;;18.30;30.40;;;;;;8333186;28;19928;-45
2022/03/15 01:16:59;;;;;;;;;;;18.30;30.40;;;;;;8332418;28;20285;-47
2022/03/15 01:20:59;;;;;;;;;;;18.30;30.40;;;;;;8332820;28;19980;-46
2022/03/15 01:25:00;;;;;;;;;;;18.30;30.40;;;;;;8332994;28;19917;-47
2022/03/15 01:29:01;;;;;;;;;;;18.30;30.40;;;;;;8332701;28;20359;-46
2022/03/15 01:33:02;;;;;;;;;;;18.30;30.40;;;;;;8332814;28;19985;-47
2022/03/15 01:37:02;;;;;;;;;;;18.20;30.40;;;;;;8332507;28;19953;-46
2022/03/15 01:41:03;;;;;;;;;;;18.20;30.40;;;;;;8331692;28;19925;-48
2022/03/15 01:45:04;;;;;;;;;;;18.20;30.40;;;;;;8332594;28;20416;-47
2022/03/15 01:49:04;;;;;;;;;;;18.20;30.40;;;;;;8332313;28;19925;-48
2022/03/15 01:53:05;;;;;;;;;;;18.20;30.40;;;;;;8331531;28;19966;-47
2022/03/15 01:57:07;;;;;;;;;;;18.20;30.40;;;;;;8332345;28;19925;-47
2022/03/15 02:01:08;;;;;;;;;;;18.20;30.50;;;;;;8331806;28;20366;-52
2022/03/15 02:05:09;;;;;;;;;;;18.20;30.50;;;;;;8331419;28;19925;-52
2022/03/15 02:09:13;;;;;;;;;;;18.20;30.40;;;;;;8331309;28;19917;-47
2022/03/15 02:13:14;;;;;;;;;;;18.20;30.50;;;;;;8330627;28;20381;-47
2022/03/15 02:17:14;;;;;;;;;;;18.20;30.50;;;;;;8330619;28;20004;-46
2022/03/15 02:21:15;;;;;;;;;;;18.10;30.40;;;;;;8331225;28;19921;-48
2022/03/15 02:25:16;;;;;;;;;;;18.10;30.50;;;;;;8331067;28;20382;-49
2022/03/15 02:29:16;;;;;;;;;;;18.10;30.50;;;;;;8330234;28;19971;-48
2022/03/15 02:33:17;;;;;;;;;;;18.10;30.50;;;;;;8330759;28;19939;-45
2022/03/15 02:37:17;;;;;;;;;;;18.10;30.50;;;;;;8330902;28;19920;-46
2022/03/15 02:41:18;;;;;;;;;;;18.10;30.50;;;;;;8329849;28;19933;-46
2022/03/15 02:45:19;;;;;;;;;;;18.20;30.60;;;;;;8330776;28;19917;-48
2022/03/15 02:49:19;;;;;;;;;;;18.10;30.60;;;;;;8330487;28;19917;-46
2022/03/15 02:53:19;;;;;;;;;;;18.10;30.50;;;;;;8329788;28;19917;-47
2022/03/15 02:57:21;;;;;;;;;;;18.10;30.60;;;;;;8330506;28;19921;-48
2022/03/15 03:01:22;;;;;;;;;;;18.10;30.60;;;;;;8330030;28;19928;-45
2022/03/15 03:05:23;;;;;;;;;;;18.10;30.60;;;;;;8329919;28;19917;-46
2022/03/15 03:09:23;;;;;;;;;;;18.10;30.60;;;;;;8329994;28;20285;-46
2022/03/15 03:13:27;;;;;;;;;;;18.10;30.70;;;;;;8330050;28;19924;-46
2022/03/15 03:17:28;;;;;;;;;;;18.10;30.60;;;;;;8329260;28;19978;-47
2022/03/15 03:21:29;;;;;;;;;;;18.10;30.60;;;;;;8329690;28;19925;-50
2022/03/15 03:25:30;;;;;;;;;;;18.10;30.70;;;;;;8334491;28;19924;-47
2022/03/15 03:29:32;;;;;;;;;;;18.10;30.70;;;;;;8336095;28;19918;-49
2022/03/15 03:33:32;;;;;;;;;;;18.10;30.70;;;;;;8336767;28;19964;-50
2022/03/15 03:37:33;;;;;;;;;;;18.00;30.60;;;;;;8336184;28;19921;-47
2022/03/15 03:41:34;;;;;;;;;;;18.10;30.70;;;;;;8335397;28;19921;-47
2022/03/15 03:45:38;;;;;;;;;;;18.00;30.70;;;;;;8336280;28;20380;-47
2022/03/15 03:49:39;;;;;;;;;;;18.00;30.70;;;;;;8336095;28;19924;-47
2022/03/15 03:53:40;;;;;;;;;;;18.10;30.80;;;;;;8335206;28;20389;-48
2022/03/15 03:57:40;;;;;;;;;;;18.00;30.80;;;;;;8335786;28;19922;-47
2022/03/15 04:01:41;;;;;;;;;;;18.00;30.90;;;;;;8335409;28;19921;-47
2022/03/15 04:05:41;;;;;;;;;;;18.00;30.90;;;;;;8335004;28;19913;-47
2022/03/15 04:09:41;;;;;;;;;;;18.00;30.90;;;;;;8335377;28;20004;-49
2022/03/15 04:13:44;;;;;;;;;;;18.00;31.00;;;;;;8335119;28;19917;-49
2022/03/15 04:17:44;;;;;;;;;;;18.00;31.00;;;;;;8334374;28;20352;-48
2022/03/15 04:21:44;;;;;;;;;;;18.00;31.00;;;;;;8334741;28;19964;-49
2022/03/15 04:25:45;;;;;;;;;;;18.00;31.00;;;;;;8334928;28;19920;-48
2022/03/15 04:29:45;;;;;;;;;;;18.00;31.00;;;;;;8334079;28;20421;-47
2022/03/15 04:33:46;;;;;;;;;;;18.00;31.00;;;;;;8334378;28;19921;-48
2022/03/15 04:37:47;;;;;;;;;;;18.00;31.00;;;;;;8333621;28;20015;-50
2022/03/15 04:41:47;;;;;;;;;;;18.00;31.00;;;;;;8333726;28;19924;-48
2022/03/15 04:45:49;;;;;;;;;;;18.00;31.00;;;;;;8388353;28;19916;-47
2022/03/15 04:49:49;;;;;;;;;;;18.00;31.00;;;;;;8350281;28;20362;-47
2022/03/15 04:53:50;;;;;;;;;;;18.00;31.10;;;;;;8333641;28;19924;-48
2022/03/15 04:57:51;;;;;;;;;;;18.00;31.10;;;;;;8333982;28;19928;-47
2022/03/15 05:01:52;;;;;;;;;;;18.00;31.10;;;;;;8333178;28;19975;-48
2022/03/15 05:05:52;;;;;;;;;;;17.90;31.20;;;;;;8333379;28;19917;-49
2022/03/15 05:14:12;;;;;;;;;;;18.00;31.20;;;;;;8367526;28;19947;-47
2022/03/15 05:18:13;;;;;;;;;;;18.00;31.30;;;;;;8366428;28;19917;-47
2022/03/15 05:22:13;;;;;;;;;;;18.00;31.40;;;;;;8365837;28;20008;-48
2022/03/15 05:26:15;;;;;;;;;;;17.90;31.30;;;;;;8365646;28;19912;-49
2022/03/15 05:30:17;;;;;;;;;;;17.90;31.30;;;;;;8365730;28;20292;-48
2022/03/15 05:34:17;;;;;;;;;;;17.90;31.30;;;;;;8365647;28;19940;-48
2022/03/15 05:38:18;;;;;;;;;;;17.90;31.30;;;;;;8365088;28;19921;-48
2022/03/15 05:42:18;;;;;;;;;;;17.90;31.30;;;;;;8365464;28;19936;-53
2022/03/15 05:46:19;;;;;;;;;;;18.00;31.40;;;;;;8365267;28;19923;-51
2022/03/15 05:50:20;;;;;;;;;;;17.90;31.30;;;;;;8363789;28;20388;-51
2022/03/15 05:54:20;;;;;;;;;;;17.90;31.30;;;;;;8364887;28;19945;-49
2022/03/15 05:58:21;;;;;;;;;;;18.00;31.40;;;;;;8364891;28;19960;-51
2022/03/15 06:02:21;;;;;;;;;;;18.00;31.40;;;;;;8364034;28;19921;-49
2022/03/15 06:06:23;;;;;;;;;;;18.00;31.40;;;;;;8364671;28;19913;-49
2022/03/15 06:10:24;;;;;;;;;;;18.00;31.40;;;;;;8364447;28;19917;-48
2022/03/15 06:14:24;;;;;;;;;;;18.00;31.40;;;;;;8363707;28;19955;-48
2022/03/15 06:18:25;;;;;;;;;;;17.90;31.40;;;;;;8364137;28;19917;-49
2022/03/15 06:22:25;;;;;;;;;;;17.90;31.40;;;;;;8364735;28;19927;-50
2022/03/15 06:26:26;;;;;;;;;;;17.90;31.50;;;;;;8363206;28;19920;-47
2022/03/15 06:30:27;;;;;;;;;;;17.90;31.50;;;;;;8364046;28;19991;-51
2022/03/15 06:34:27;;;;;;;;;;;17.90;31.50;;;;;;8363778;28;19945;-49
2022/03/15 06:38:29;;;;;;;;;;;17.90;31.60;;;;;;8363182;28;19924;-49
2022/03/15 06:42:31;;;;;;;;;;;17.90;31.60;;;;;;8363805;28;19928;-47
2022/03/15 06:46:32;;;;;;;;;;;17.90;31.60;;;;;;8363609;28;19917;-49
2022/03/15 06:50:32;;;;;;;;;;;17.90;31.60;;;;;;8362750;28;19995;-48
2022/03/15 06:54:32;;;;;;;;;;;17.90;31.60;;;;;;8363105;28;20019;-48
2022/03/15 06:58:34;;;;;;;;;;;17.90;31.70;;;;;;8362836;28;19921;-48
2022/03/15 07:02:34;;;;;;;;;;;17.90;31.60;;;;;;8362808;28;20381;-47
2022/03/15 07:06:35;;;;;;;;;;;17.90;31.60;;;;;;8363073;28;19917;-48
2022/03/15 07:10:35;;;;;;;;;;;17.90;31.70;;;;;;8362901;28;19971;-48
2022/03/15 07:14:36;;;;;;;;;;;17.90;31.70;;;;;;8362346;28;20070;-47
2022/03/15 07:18:36;;;;;;;;;;;17.90;31.70;;;;;;8363178;28;19917;-49
2022/03/15 07:22:36;;;;;;;;;;;17.90;31.70;;;;;;8362854;28;19927;-48
2022/03/15 07:26:37;;;;;;;;;;;17.90;31.70;;;;;;8362215;28;19995;-48
2022/03/15 07:30:37;;;;;;;;;;;17.90;31.80;;;;;;8362640;28;19917;-48
2022/03/15 07:34:38;;;;;;;;;;;17.90;31.80;;;;;;8362591;28;20035;-48
2022/03/15 07:38:38;;;;;;;;;;;17.90;31.80;;;;;;8362170;28;20439;-48
2022/03/15 07:42:39;;;;;;;;;;;17.90;31.80;;;;;;8363060;28;20361;-52
2022/03/15 07:46:48;;;;;;;;;;;17.90;31.80;;;;;;8362517;28;20007;-51
2022/03/15 07:50:49;;;;;;;;;;;17.90;31.80;;;;;;8361814;28;20010;-49
2022/03/15 07:54:49;;;;;;;;;;;17.90;31.80;;;;;;8362304;28;19925;-49
2022/03/15 07:58:50;;;;;;;;;;;17.90;31.80;;;;;;8362254;28;20340;-49
2022/03/15 08:02:52;;;;;;;;;;;17.90;31.90;;;;;;8362338;28;20376;-51
2022/03/15 08:06:52;;;;;;;;;;;17.90;31.90;;;;;;8362202;28;20293;-51
2022/03/15 08:10:53;;;;;;;;;;;17.90;31.90;;;;;;8338036;28;19959;-50
2022/03/15 08:14:53;;;;;;;;;;;17.90;31.90;;;;;;8335414;28;19963;-48
2022/03/15 08:18:54;;;;;;;;;;;17.90;31.90;;;;;;8335111;28;19917;-50
2022/03/15 08:22:55;;;;;;;;;;;17.90;31.90;;;;;;8334615;28;19925;-48
2022/03/15 08:26:56;;;;;;;;;;;17.90;32.00;;;;;;8334868;28;19979;-49
2022/03/15 08:30:59;;;;;;;;;;;17.90;32.00;;;;;;8334784;28;19971;-51
2022/03/15 08:35:00;;;;;;;;;;;17.80;32.00;;;;;;8333929;28;19928;-50
2022/03/15 08:39:00;;;;;;;;;;;17.80;32.00;;;;;;8334375;28;20290;-48
2022/03/15 08:43:01;;;;;;;;;;;17.80;32.00;;;;;;8334286;28;20397;-48
2022/03/15 08:47:01;;;;;;;;;;;17.80;32.10;;;;;;8333672;28;19922;-48
2022/03/15 08:51:02;;;;;;;;;;;17.90;32.10;;;;;;8334305;28;20288;-48
2022/03/15 08:55:03;;;;;;;;;;;17.90;32.10;;;;;;8334185;28;19921;-50
2022/03/15 08:59:03;;;;;;;;;;;17.80;32.10;;;;;;8333267;28;20011;-49
2022/03/15 09:03:03;;;;;;;;;;;17.80;32.10;;;;;;8333655;28;20443;-51
2022/03/15 09:07:04;;;;;;;;;;;17.90;32.20;;;;;;8333700;28;19971;-49
2022/03/15 09:11:05;;;;;;;;;;;17.90;32.20;;;;;;8332832;28;19917;-48
2022/03/15 09:15:05;;;;;;;;;;;17.90;32.20;;;;;;8333277;28;19924;-50
2022/03/15 09:19:06;;;;;;;;;;;17.80;32.20;;;;;;8333050;28;20292;-52
2022/03/15 09:23:07;;;;;;;;;;;17.90;32.20;;;;;;8332483;28;20047;-49
2022/03/15 09:27:07;;;;;;;;;;;17.90;32.20;;;;;;8332827;28;19917;-51
2022/03/15 09:31:08;;;;;;;;;;;17.90;32.20;;;;;;8332791;28;19963;-49
2022/03/15 09:35:09;;;;;;;;;;;17.90;32.20;;;;;;8332110;28;19929;-52
2022/03/15 09:39:10;;;;;;;;;;;17.90;32.30;;;;;;8332773;28;19927;-51
2022/03/15 09:43:11;;;;;;;;;;;17.90;32.30;;;;;;8332625;28;19921;-49
2022/03/15 09:47:15;;;;;;;;;;;17.90;32.30;;;;;;8331728;28;19948;-50
2022/03/15 09:51:15;;;;;;;;;;;17.90;32.30;;;;;;8314570;28;19917;-48
2022/03/15 09:55:16;;;;;;;;;;;17.90;32.30;;;;;;8332200;28;19968;-48
2022/03/15 09:59:19;;;;;;;;;;;17.90;32.30;;;;;;8331449;28;19917;-49
2022/03/15 10:03:19;;;;;;;;;;;17.90;32.30;;;;;;8331817;28;19925;-49
2022/03/15 10:07:20;;;;;;;;;;;17.90;32.40;;;;;;8331581;28;20358;-48
2022/03/15 10:11:23;;;;;;;;;;;17.90;32.40;;;;;;8330877;28;20011;-50
2022/03/15 10:15:25;;;;;;;;;;;17.90;32.40;;;;;;8331357;28;20282;-51
2022/03/15 10:19:25;;;;;;;;;;;17.90;33.00;;;;;;8331177;28;20308;-48
2022/03/15 10:23:30;;;;;;;;;;;17.90;32.40;;;;;;8330673;28;19921;-51
2022/03/15 10:27:34;;;;;;;;;;;17.90;32.40;;;;;;8330991;28;19921;-48
2022/03/15 10:31:34;;;;;;;;;;;17.90;32.40;;;;;;8331150;28;19917;-50
2022/03/15 10:35:36;;;;;;;;;;;17.90;32.40;;;;;;8329638;28;19929;-48
2022/03/15 10:39:39;;;;;;;;;;;17.90;32.40;;;;;;8330879;28;19924;-48
2022/03/15 10:43:40;;;;;;;;;;;17.90;32.50;;;;;;8330762;28;19925;-49
2022/03/15 10:47:51;;;;;;;;;;;17.90;32.50;;;;;;8329868;28;19923;-47
2022/03/15 10:51:51;;;;;;;;;;;17.90;32.50;;;;;;8330452;28;19963;-49
2022/03/15 10:56:12;;;;;;;;;;;17.90;32.50;;;;;;8329667;28;20357;-49
2022/03/15 11:00:14;;;;;;;;;;;17.90;32.50;;;;;;8330155;28;19920;-48
2022/03/15 11:04:15;;;;;;;;;;;17.90;32.60;;;;;;8330368;28;19921;-47
2022/03/15 11:08:15;;;;;;;;;;;17.90;32.60;;;;;;8329352;28;20369;-47
2022/03/15 11:12:17;;;;;;;;;;;17.90;32.60;;;;;;8330167;28;20007;-50
2022/03/15 11:16:18;;;;;;;;;;;17.90;32.70;;;;;;8330305;28;19917;-48
2022/03/15 11:20:19;;;;;;;;;;;17.90;32.80;;;;;;8329278;28;19921;-48
2022/03/15 11:24:23;;;;;;;;;;;17.90;32.70;;;;;;8330311;28;20443;-49
2022/03/15 11:28:26;;;;;;;;;;;17.90;32.70;;;;;;8329874;28;19924;-48
2022/03/15 11:32:26;;;;;;;;;;;17.90;32.80;;;;;;8329245;28;19928;-47
2022/03/15 11:36:27;;;;;;;;;;;17.90;32.80;;;;;;8330195;28;19917;-48
2022/03/15 11:40:28;;;;;;;;;;;17.90;32.80;;;;;;8329607;28;19924;-47
2022/03/15 11:44:33;;;;;;;;;;;17.90;32.80;;;;;;8329529;28;19919;-51
2022/03/15 11:48:44;;;;;;;;;;;17.90;32.80;;;;;;8335457;28;20306;-49
2022/03/15 11:52:45;;;;;;;;;;;17.90;32.80;;;;;;8335557;28;19918;-48
2022/03/15 11:56:52;;;;;;;;;;;17.90;32.80;;;;;;8334848;28;19921;-48
2022/03/15 12:00:54;;;;;;;;;;;17.90;33.30;;;;;;8335520;28;19928;-48
2022/03/15 12:04:56;;;;;;;;;;;18.00;32.80;;;;;;8334952;28;19917;-53
2022/03/15 12:08:57;;;;;;;;;;;17.90;32.80;;;;;;8335710;28;19913;-48
2022/03/15 12:13:00;;;;;;;;;;;17.90;32.80;;;;;;8335263;28;19978;-47
2022/03/15 12:17:01;;;;;;;;;;;18.00;32.90;;;;;;8334409;28;19917;-48
2022/03/15 12:21:07;;;;;;;;;;;18.00;32.90;;;;;;8334859;28;19975;-48
2022/03/15 12:25:12;;;;;;;;;;;18.00;32.90;;;;;;8334700;28;19917;-47
2022/03/15 12:29:14;;;;;;;;;;;18.00;32.90;;;;;;8334414;28;19924;-50
2022/03/15 12:33:23;;;;;;;;;;;18.00;32.90;;;;;;8334642;28;19925;-48
2022/03/15 12:37:42;;;;;;;;;;;17.90;32.90;;;;;;8336433;28;19957;-47
2022/03/15 12:41:42;;;;;;;;;;;18.00;32.90;;;;;;8333614;28;19925;-47
2022/03/15 12:45:46;;;;;;;;;;;18.00;33.00;;;;;;8334071;28;19935;-50
2022/03/15 12:50:05;;;;;;;;;;;18.00;33.00;;;;;;8334218;28;20637;-49
2022/03/15 12:54:07;;;;;;;;;;;18.00;33.00;;;;;;8333908;28;19917;-49
2022/03/15 12:58:09;;;;;;;;;;;17.90;33.00;;;;;;8358603;28;19921;-48
2022/03/15 13:02:15;;;;;;;;;;;18.00;33.00;;;;;;8365965;28;19924;-48
2022/03/15 13:06:19;;;;;;;;;;;18.00;33.00;;;;;;8366723;28;20293;-49
2022/03/15 13:10:36;;;;;;;;;;;18.00;33.00;;;;;;8366508;28;19920;-48
2022/03/15 13:14:37;;;;;;;;;;;17.90;33.00;;;;;;8366163;28;19935;-52
2022/03/15 13:18:40;;;;;;;;;;;17.90;33.00;;;;;;8366222;28;20007;-48
2022/03/15 13:22:41;;;;;;;;;;;17.90;33.00;;;;;;8365861;28;20336;-51
2022/03/15 13:26:41;;;;;;;;;;;17.90;33.00;;;;;;8365686;28;19921;-53
2022/03/15 13:30:43;;;;;;;;;;;18.00;33.00;;;;;;8365994;28;19924;-48
2022/03/15 13:34:46;;;;;;;;;;;17.90;33.00;;;;;;8365868;28;20326;-50
2022/03/15 13:38:51;;;;;;;;;;;17.90;33.10;;;;;;8364989;28;19959;-51
2022/03/15 13:42:51;;;;;;;;;;;17.90;33.00;;;;;;8365206;28;20333;-50
2022/03/15 13:46:54;;;;;;;;;;;17.90;33.00;;;;;;8364659;28;19917;-51
2022/03/15 13:51:06;;;;;;;;;;;17.90;33.10;;;;;;8364933;28;19921;-49
2022/03/15 13:55:10;;;;;;;;;;;18.00;33.10;;;;;;8365394;28;19978;-48
2022/03/15 13:59:11;;;;;;;;;;;18.00;33.20;;;;;;8364167;28;20497;-50
2022/03/15 14:03:12;;;;;;;;;;;17.90;33.10;;;;;;8364666;28;20369;-48
2022/03/15 14:07:21;;;;;;;;;;;18.00;33.20;;;;;;8352422;28;21277;-49
2022/03/15 14:11:26;;;;;;;;;;;17.90;33.20;;;;;;8330050;28;20000;-48
2022/03/15 14:15:29;;;;;;;;;;;17.90;33.10;;;;;;8331582;28;20266;-51
2022/03/15 14:19:29;;;;;;;;;;;17.90;33.20;;;;;;8331383;28;19996;-50
2022/03/15 14:23:30;;;;;;;;;;;17.90;33.20;;;;;;8330741;28;20364;-51
2022/03/15 14:27:39;;;;;;;;;;;17.90;33.20;;;;;;8331303;28;20004;-53
2022/03/15 14:31:42;;;;;;;;;;;17.90;33.20;;;;;;8331009;28;19945;-53
2022/03/15 14:35:44;;;;;;;;;;;17.90;33.30;;;;;;8330252;28;19914;-50
2022/03/15 14:39:46;;;;;;;;;;;17.90;33.20;;;;;;8330875;28;20020;-53
2022/03/15 14:43:47;;;;;;;;;;;17.90;33.30;;;;;;8330395;28;19998;-53
2022/03/15 14:47:47;;;;;;;;;;;17.90;33.30;;;;;;8329945;28;19917;-52
2022/03/15 14:51:50;;;;;;;;;;;17.90;33.30;;;;;;8330197;28;20348;-50
2022/03/15 14:55:50;;;;;;;;;;;18.00;33.30;;;;;;8330827;28;19932;-52
2022/03/15 14:59:52;;;;;;;;;;;17.90;33.40;;;;;;8329600;28;19917;-52
2022/03/15 15:03:53;;;;;;;;;;;17.90;33.40;;;;;;8329831;28;20020;-51
2022/03/15 15:07:53;;;;;;;;;;;17.90;33.30;;;;;;8329451;28;20278;-51
2022/03/15 15:11:55;;;;;;;;;;;17.90;33.40;;;;;;8329864;28;20287;-51
2022/03/15 15:15:55;;;;;;;;;;;17.90;33.40;;;;;;8330254;28;19913;-49
2022/03/15 15:19:56;;;;;;;;;;;17.90;33.40;;;;;;8330963;28;19918;-49
2022/03/15 15:23:56;;;;;;;;;;;17.90;33.40;;;;;;8336829;28;20396;-48
2022/03/15 15:27:58;;;;;;;;;;;17.90;33.40;;;;;;8336533;28;19917;-48
2022/03/15 15:31:59;;;;;;;;;;;17.90;33.40;;;;;;8335564;28;19917;-48
2022/03/15 15:35:59;;;;;;;;;;;17.90;33.50;;;;;;8336373;28;19914;-48
2022/03/15 15:40:02;;;;;;;;;;;17.90;33.50;;;;;;8336056;28;19928;-48
2022/03/15 15:44:03;;;;;;;;;;;17.90;33.50;;;;;;8335499;28;19925;-48
2022/03/15 15:48:09;;;;;;;;;;;17.90;33.50;;;;;;8335797;28;19924;-49
2022/03/15 15:52:09;;;;;;;;;;;17.90;33.50;;;;;;8335855;28;20000;-47
2022/03/15 15:56:10;;;;;;;;;;;17.90;33.60;;;;;;8335570;28;19936;-48
2022/03/15 16:00:11;;;;;;;;;;;17.90;33.50;;;;;;8335299;28;19921;-51
2022/03/15 16:04:12;;;;;;;;;;;17.90;33.50;;;;;;8336009;28;19956;-47
2022/03/15 16:08:14;;;;;;;;;;;17.90;33.50;;;;;;8335433;28;19917;-48
2022/03/15 16:12:16;;;;;;;;;;;17.90;33.60;;;;;;8336147;28;19917;-48
2022/03/15 16:16:17;;;;;;;;;;;17.90;33.60;;;;;;8336194;28;19913;-48
2022/03/15 16:20:18;;;;;;;;;;;17.90;33.60;;;;;;8334346;28;19924;-51
2022/03/15 16:24:19;;;;;;;;;;;17.90;33.60;;;;;;8334739;28;20412;-50
2022/03/15 16:28:19;;;;;;;;;;;17.90;33.60;;;;;;8334721;28;19949;-47
2022/03/15 16:32:25;;;;;;;;;;;17.90;33.60;;;;;;8332958;28;19918;-50
2022/03/15 16:36:26;;;;;;;;;;;17.90;33.60;;;;;;8334514;28;19919;-49
2022/03/15 16:40:27;;;;;;;;;;;17.90;33.60;;;;;;8334290;28;20057;-48
2022/03/15 16:44:28;;;;;;;;;;;17.90;33.60;;;;;;8333545;28;19984;-49
2022/03/15 16:48:28;;;;;;;;;;;17.90;33.60;;;;;;8333947;28;20285;-51
2022/03/15 16:52:31;;;;;;;;;;;17.90;33.60;;;;;;8334044;28;19917;-48
2022/03/15 16:56:31;;;;;;;;;;;17.90;33.60;;;;;;8333992;28;19925;-47
2022/03/15 17:00:32;;;;;;;;;;;17.90;33.60;;;;;;8333711;28;20003;-50
2022/03/15 17:08:52;;;;;;;;;;;17.90;33.60;;;;;;8342581;28;19923;-48
2022/03/15 17:12:53;;;;;;;;;;;17.90;33.60;;;;;;8373272;28;19936;-48
2022/03/15 17:16:59;;;;;;;;;;;17.90;33.70;;;;;;8365639;28;19916;-51
2022/03/15 17:21:00;;;;;;;;;;;17.90;33.70;;;;;;8366585;28;20034;-48
2022/03/15 17:25:04;;;;;;;;;;;17.90;33.70;;;;;;8365920;28;20415;-52
2022/03/15 17:29:09;;;;;;;;;;;17.90;33.70;;;;;;8365487;28;20004;-48
2022/03/15 17:33:12;;;;;;;;;;;17.90;33.70;;;;;;8348031;28;19916;-51
2022/03/15 17:37:15;;;;;;;;;;;17.90;33.70;;;;;;8365550;28;19917;-52
2022/03/15 17:41:23;;;;;;;;;;;17.90;33.80;;;;;;8365038;28;19929;-47
2022/03/15 17:45:24;;;;;;;;;;;17.90;33.70;;;;;;8369736;28;19917;-50
2022/03/15 17:49:26;;;;;;;;;;;17.90;33.70;;;;;;8365293;28;19917;-48
2022/03/15 17:53:26;;;;;;;;;;;17.90;33.70;;;;;;8364487;28;19920;-49
2022/03/15 17:57:29;;;;;;;;;;;17.90;33.80;;;;;;8365139;28;20171;-53
2022/03/15 18:01:31;;;;;;;;;;;17.90;33.80;;;;;;8365136;28;19982;-48
2022/03/15 18:05:31;;;;;;;;;;;17.90;33.80;;;;;;8364149;28;19923;-51
2022/03/15 18:09:32;;;;;;;;;;;17.90;33.80;;;;;;8364864;28;19917;-47
2022/03/15 18:13:35;;;;;;;;;;;17.90;33.70;;;;;;8364770;28;20011;-51
2022/03/15 18:17:39;;;;;;;;;;;17.90;33.80;;;;;;8363698;28;19917;-50
2022/03/15 18:21:40;;;;;;;;;;;17.90;33.80;;;;;;8364377;28;19920;-53
2022/03/15 18:25:42;;;;;;;;;;;17.90;33.80;;;;;;8363746;28;19921;-50
2022/03/15 18:29:42;;;;;;;;;;;17.90;33.80;;;;;;8363103;28;20043;-51
2022/03/15 18:33:43;;;;;;;;;;;17.90;33.80;;;;;;8363940;28;19916;-53
2022/03/15 18:37:44;;;;;;;;;;;17.90;33.80;;;;;;8363779;28;19924;-51
2022/03/15 18:41:45;;;;;;;;;;;17.90;34.40;;;;;;8363425;28;19936;-50
2022/03/15 18:45:47;;;;;;;;;;;17.90;33.90;;;;;;8363644;28;19955;-53
2022/03/15 18:49:47;;;;;;;;;;;17.90;33.80;;;;;;8363633;28;20370;-51
2022/03/15 18:53:48;;;;;;;;;;;17.90;33.90;;;;;;8362602;28;19917;-47
2022/03/15 18:57:48;;;;;;;;;;;17.90;33.90;;;;;;8362934;28;20356;-49
2022/03/15 19:01:49;;;;;;;;;;;17.90;33.90;;;;;;8363659;28;19970;-51
2022/03/15 19:05:51;;;;;;;;;;;17.90;33.90;;;;;;8362586;28;19917;-48
2022/03/15 19:09:52;;;;;;;;;;;17.90;33.90;;;;;;8363049;28;19960;-49
2022/03/15 19:13:52;;;;;;;;;;;17.90;33.90;;;;;;8362552;28;20016;-48
2022/03/15 19:17:53;;;;;;;;;;;17.90;33.90;;;;;;8362769;28;19912;-48
2022/03/15 19:21:54;;;;;;;;;;;17.90;33.90;;;;;;8362889;28;19925;-50
2022/03/15 19:25:55;;;;;;;;;;;17.90;33.90;;;;;;8362278;28;20279;-51
2022/03/15 19:29:56;;;;;;;;;;;17.90;33.90;;;;;;8362994;28;20362;-48
2022/03/15 19:33:57;;;;;;;;;;;17.90;33.90;;;;;;8362366;28;19913;-48
2022/03/15 19:37:58;;;;;;;;;;;17.90;33.90;;;;;;8361907;28;19921;-49
2022/03/15 19:42:04;;;;;;;;;;;17.90;33.90;;;;;;8362485;28;19947;-53
2022/03/15 19:46:05;;;;;;;;;;;17.90;33.90;;;;;;8374436;28;19916;-48
2022/03/15 19:50:07;;;;;;;;;;;17.90;34.00;;;;;;8357490;28;19920;-50
2022/03/15 19:54:08;;;;;;;;;;;17.90;34.00;;;;;;8329634;28;20000;-48
2022/03/15 19:58:08;;;;;;;;;;;18.00;34.00;;;;;;8329386;28;19920;-49
2022/03/15 20:02:12;;;;;;;;;;;17.90;33.90;;;;;;8338079;28;19921;-50
2022/03/15 20:06:13;;;;;;;;;;;17.90;34.00;;;;;;8362745;28;20393;-49
2022/03/15 20:10:14;;;;;;;;;;;17.90;34.00;;;;;;8368337;28;20012;-47
2022/03/15 20:14:17;;;;;;;;;;;17.90;34.00;;;;;;8367942;28;19917;-48
2022/03/15 20:18:18;;;;;;;;;;;17.90;34.00;;;;;;8368432;28;19940;-50
2022/03/15 20:22:19;;;;;;;;;;;17.90;34.00;;;;;;8368027;28;20297;-51
2022/03/15 20:26:20;;;;;;;;;;;17.90;34.00;;;;;;8367326;28;19947;-50
2022/03/15 20:30:23;;;;;;;;;;;17.90;34.00;;;;;;8367718;28;19921;-47
2022/03/15 20:34:23;;;;;;;;;;;17.90;34.00;;;;;;8367775;28;19917;-47
2022/03/15 20:38:24;;;;;;;;;;;17.90;34.00;;;;;;8367385;28;20324;-50
2022/03/15 20:42:25;;;;;;;;;;;17.90;34.00;;;;;;8367574;28;19925;-47
2022/03/15 20:46:26;;;;;;;;;;;17.90;34.00;;;;;;8367317;28;19924;-50
2022/03/15 20:50:27;;;;;;;;;;;17.90;34.00;;;;;;8366697;28;19917;-50
2022/03/15 20:54:28;;;;;;;;;;;17.90;34.00;;;;;;8367108;28;20435;-49
2022/03/15 20:58:29;;;;;;;;;;;17.90;34.00;;;;;;8366914;28;19920;-52
2022/03/15 21:02:30;;;;;;;;;;;17.90;34.00;;;;;;8366357;28;19937;-54
2022/03/15 21:06:36;;;;;;;;;;;17.90;34.60;;;;;;8366680;28;19936;-51
2022/03/15 21:10:36;;;;;;;;;;;17.90;34.00;;;;;;8366498;28;19916;-51
2022/03/15 21:14:37;;;;;;;;;;;17.90;34.10;;;;;;8366257;28;19924;-52
2022/03/15 21:18:38;;;;;;;;;;;17.90;34.10;;;;;;8366124;28;19920;-52
2022/03/15 21:22:39;;;;;;;;;;;17.90;34.00;;;;;;8366215;28;19921;-49
2022/03/15 21:26:39;;;;;;;;;;;18.00;34.10;;;;;;8365471;28;19940;-49
2022/03/15 21:30:40;;;;;;;;;;;17.90;34.00;;;;;;8365926;28;19979;-50
2022/03/15 21:34:40;;;;;;;;;;;17.90;34.00;;;;;;8365719;28;19921;-50
2022/03/15 21:38:44;;;;;;;;;;;17.90;34.00;;;;;;8365365;28;20285;-48
2022/03/15 21:42:45;;;;;;;;;;;17.90;34.10;;;;;;8365780;28;19968;-48
2022/03/15 21:46:45;;;;;;;;;;;17.90;34.00;;;;;;8365428;28;20396;-48
2022/03/15 21:50:46;;;;;;;;;;;17.90;34.00;;;;;;8364772;28;20289;-51
2022/03/15 21:54:47;;;;;;;;;;;17.90;34.00;;;;;;8365294;28;19995;-50
2022/03/15 21:58:51;;;;;;;;;;;17.90;34.00;;;;;;8365022;28;19913;-49
2022/03/15 22:02:52;;;;;;;;;;;17.90;34.00;;;;;;8364634;28;20399;-49
2022/03/15 22:06:53;;;;;;;;;;;17.90;34.00;;;;;;8364827;28;19924;-52
2022/03/15 22:10:55;;;;;;;;;;;17.90;34.10;;;;;;8364148;28;19917;-49
2022/03/15 22:14:56;;;;;;;;;;;17.90;34.10;;;;;;8364349;28;19988;-49
2022/03/15 22:18:56;;;;;;;;;;;17.90;34.10;;;;;;8364147;28;19920;-48
2022/03/15 22:22:58;;;;;;;;;;;17.90;34.10;;;;;;8363982;28;20377;-48
2022/03/15 22:26:58;;;;;;;;;;;17.90;34.10;;;;;;8364374;28;20003;-48
2022/03/15 23:17:56;;;;;;;;;;;17.80;34.10;;;;;;8329630;28;19968;-49
2022/03/15 23:26:16;;;;;;;;;;;17.80;34.20;;;;;;8329947;28;19951;-52
2022/03/15 23:30:17;;;;;;;;;;;17.80;34.20;;;;;;8329684;28;20008;-51
2022/03/15 23:34:18;;;;;;;;;;;17.80;34.20;;;;;;8329931;28;20321;-51
2022/03/15 23:38:18;;;;;;;;;;;17.80;34.20;;;;;;8329296;28;19961;-51
2022/03/15 23:42:19;;;;;;;;;;;17.80;34.20;;;;;;8333313;28;19929;-49
2022/03/15 23:46:19;;;;;;;;;;;17.70;34.10;;;;;;8336120;28;20333;-49
2022/03/15 23:50:22;;;;;;;;;;;17.70;34.10;;;;;;8335565;28;19917;-51
2022/03/15 23:54:22;;;;;;;;;;;17.70;34.10;;;;;;8335956;28;19917;-50
2022/03/15 23:58:23;;;;;;;;;;;17.80;34.20;;;;;;8335900;28;19979;-49
